Flight Track Log - Related Links

Times and Time Zones

All times are in EDT time to prevent confusion due to time zone crossing. See the SWA3321 flight status page for this flight to view local times or setup timezone preferences in your user account.

Time Position Orientation Groundspeed Altitude Reporting Facility
EDT Latitude Longitude Course Direction KTS MPH feet Rate Location/Type
Wed 04:55:36 PM 38.7500 -121.5667 38° Northeast 209 241 2,700  Level Northern Cal TRACON
Wed 04:56:36 PM 38.7000 -121.5167 142° Southeast 242 278 5,300 2,538 Climbing Northern Cal TRACON
Wed 04:58:12 PM 38.6303 -121.3986 127° Southeast 296 341 9,300 2,790 Climbing Oakland Center
Wed 04:59:13 PM 38.5786 -121.3039 125° Southeast 317 365 12,600 3,512 Climbing Oakland Center
Wed 05:00:15 PM 38.5072 -121.1772 126° Southeast 359 413 16,500 3,073 Climbing Oakland Center
Wed 05:01:16 PM 38.4536 -121.0797 125° Southeast 387 445 18,900 2,459 Climbing Oakland Center
Wed 05:02:17 PM 38.3881 -120.9606 125° Southeast 408 470 21,500 2,951 Climbing Oakland Center
Wed 05:03:18 PM 38.3031 -120.8083 125° Southeast 436 502 24,900 2,732 Climbing Oakland Center
Wed 05:04:20 PM 38.2286 -120.6811 127° Southeast 446 513 27,100 2,098 Climbing Oakland Center
Wed 05:05:21 PM 38.1289 -120.5786 141° Southeast 458 527 29,200 1,869 Climbing Oakland Center
Wed 05:06:22 PM 38.0242 -120.4772 143° Southeast 470 541 30,900 1,918 Climbing Oakland Center
Wed 05:07:23 PM 37.9047 -120.4033 154° Southeast 481 554 33,100 2,164 Climbing Oakland Center
Wed 05:08:24 PM 37.7828 -120.3528 162° South 463 533 35,300 1,756 Climbing Oakland Center
Wed 05:09:26 PM 37.6608 -120.3003 161° South 461 531 36,700 1,171 Climbing Oakland Center
Wed 05:10:27 PM 37.5375 -120.2481 161° South 466 536 37,700 1,131 Climbing Oakland Center
Wed 05:11:28 PM 37.4128 -120.1961 162° South 469 540 39,000 639 Climbing Oakland Center
Wed 05:12:29 PM 37.2850 -120.1472 163° South 477 549 39,000  Level Oakland Center
Wed 05:13:30 PM 37.1603 -120.0953 162° South 472 543 39,000  Level Oakland Center
Wed 05:14:32 PM 37.0342 -120.0428 162° South 467 537 39,000  Level Oakland Center
Wed 05:15:33 PM 36.9108 -119.9928 162° South 466 536 39,000  Level Oakland Center
Wed 05:16:34 PM 36.7619 -119.9314 162° South 465 535 39,000  Level Oakland Center
Wed 05:17:35 PM 36.6386 -119.8806 162° South 463 533 39,000  Level Oakland Center
Wed 05:19:38 PM 36.3936 -119.7803 162° South 460 529 39,000  Level Oakland Center
Wed 05:20:39 PM 36.2708 -119.7306 162° South 462 532 39,000  Level Oakland Center
Wed 05:21:40 PM 36.1475 -119.6814 162° South 463 533 39,000  Level Oakland Center
Wed 05:22:41 PM 36.0239 -119.6311 162° South 465 535 39,000  Level Oakland Center
Wed 05:24:00 PM 35.8929 -119.6027 182° South  Level FlightAware Approximate
Wed 05:24:43 PM 35.7686 -119.6222 182° South 462 532 39,000  Level Oakland Center
Wed 05:25:45 PM 35.6375 -119.6022 173° South 472 543 39,000  Level Oakland Center
Wed 05:26:46 PM 35.5086 -119.5792 172° South 466 536 39,000  Level Oakland Center
Wed 05:27:47 PM 35.3792 -119.5561 172° South 467 537 39,000  Level Oakland Center
Wed 05:28:48 PM 35.2519 -119.5242 168° South 466 536 39,000  Level Oakland Center
Wed 05:29:55 PM 35.1122 -119.4381 153° Southeast 466 536 39,000  Level Los Angeles Center
Wed 05:30:57 PM 34.9950 -119.3681 154° Southeast 466 536 39,000 -242 Level Los Angeles Center
Wed 05:31:59 PM 34.8800 -119.2983 154° Southeast 464 534 38,500 -1,452 Descending Los Angeles Center
Wed 05:33:01 PM 34.7650 -119.2294 154° Southeast 461 531 36,000 -3,145 Descending Los Angeles Center
Wed 05:34:03 PM 34.6272 -119.1469 154° Southeast 461 531 32,000 -3,435 Descending Los Angeles Center
Wed 05:35:05 PM 34.5119 -119.0792 154° Southeast 465 535 28,900 -2,855 Descending Los Angeles Center
Wed 05:36:07 PM 34.3950 -119.0106 154° Southeast 468 539 26,100 -2,661 Descending Los Angeles Center
Wed 05:37:09 PM 34.2794 -118.9392 153° Southeast 469 540 23,400 -2,592 Descending Los Angeles Center
Wed 05:38:12 PM 34.1681 -118.8731 154° Southeast 445 512 20,700 -2,736 Descending Los Angeles Center
Wed 05:39:14 PM 34.0369 -118.7953 154° Southeast 437 503 17,700 -2,952 Descending Los Angeles Center
Wed 05:40:16 PM 33.9264 -118.7306 154° Southeast 428 493 14,600 -1,790 Descending Los Angeles Center
Wed 05:41:18 PM 33.8275 -118.6892 161° South 396 456 14,000 -339 Descending Los Angeles Center
Wed 05:42:20 PM 33.7350 -118.6547 163° South 349 402 13,900 -968 Descending Los Angeles Center
Wed 05:43:22 PM 33.6308 -118.6175 163° South 329 379 12,000 -1,645 Descending Los Angeles Center
Wed 05:44:24 PM 33.5547 -118.5714 153° Southeast 312 359 10,500 -1,500 Descending Los Angeles Center
Wed 05:45:26 PM 33.4861 -118.5131 145° Southeast 309 356 8,900 -1,548 Descending Los Angeles Center
Wed 05:46:28 PM 33.4903 -118.4272 87° East 275 316 7,300 -1,645 Descending Los Angeles Center
Wed 05:47:30 PM 33.5186 -118.3478 67° East 263 303 5,500 -1,104 Descending Los Angeles Center
Wed 05:48:33 PM 33.5536 -118.2508 67° East 266 306 5,000 -240 Descending Los Angeles Center
Wed 05:49:35 PM 33.5825 -118.1694 67° East 267 307 5,000  Level Los Angeles Center
Wed 05:50:37 PM 33.6089 -118.0975 66° East 250 288 5,000  Level Los Angeles Center
Wed 05:51:30 PM 33.6333 -118.0333 65° Northeast 233 268 5,000  Level Southern California TRACON
Wed 05:52:31 PM 33.6833 -117.9833 40° Northeast 216 249 5,000  Level Southern California TRACON
Wed 05:53:25 PM 33.7167 -117.9500 40° Northeast 215 247 5,000 -500 Level Southern California TRACON
Wed 05:54:31 PM 33.7833 -117.9000 32° Northeast 216 249 4,000 -476 Descending Southern California TRACON
Wed 05:55:31 PM 33.8167 -117.8500 51° Northeast 215 247 4,000 -500 Level Southern California TRACON
Wed 05:56:31 PM 33.8167 -117.8000 90° East 231 266 3,000 -550 Descending Southern California TRACON
Wed 05:57:31 PM 33.7667 -117.8167 195° South 165 190 2,900 -684 Descending Southern California TRACON
Wed 05:58:25 PM 33.7333 -117.8333 203° Southwest 155 178 1,700 -1,200 Descending Southern California TRACON
Wed 05:59:31 PM 33.7000 -117.8500 203° Southwest 132 152 500 -1,091 Descending Southern California TRACON

Login

Don't have an account? Register now (free) for customized features, flight alerts, and more!